Homer Airport Homer US
ICAO: PAHO
IATA:
Category: Medium
Scheduled Services:

Elevation: 84 ft
TransAlt. 18000 ft.

Airport Communications:
ASOS:135.65
ANCHORAGE CNTR:125.9
CTAF:123.6
RDO:123.6
TWEB:114.6
KENAI RDO:123.6
UNICOM:123.05

PAHO Zoom In..

Runways:

(A) RW 04 length 6701 ft width 150 ft
LOC 109.30 / hdg 38

(B) RW 22 length 6701 ft width 150 ft
LOC 109.30 / hdg 218

Location; PAHO
Day. 19 / Time. 02.53 Zulu
* Altimeter: 30.21
* Temperature: 16° c. 60.8°f.
* Wind from: 260° Speed 14 kn.
Dewpoint: 09° c.
Visibility: 10 Statute Miles.
Clouds: Clear (automated report).

PAHO 190253Z 26014KT 10SM CLR 16/09 A3021 RMK AO2 SLP230 T01610089 53005


Wind From 260°
Speed 14 kn.

 
 
jpsmedia.com for Web Design worldairports.se 2018   terms of use